sensor_id;sensor_type;location;lat;lon;timestamp;temperature;humidity
20590;DHT22;10453;50.810;12.540;2023-04-03T00:03:09;2.70;99.90
20590;DHT22;10453;50.810;12.540;2023-04-03T00:07:27;2.60;99.90
20590;DHT22;10453;50.810;12.540;2023-04-03T00:11:45;2.60;99.90
20590;DHT22;10453;50.810;12.540;2023-04-03T00:16:02;2.50;99.90
20590;DHT22;10453;50.810;12.540;2023-04-03T00:20:20;2.40;99.90
20590;DHT22;10453;50.810;12.540;2023-04-03T00:24:38;2.50;99.90
20590;DHT22;10453;50.810;12.540;2023-04-03T00:28:55;2.40;99.90
20590;DHT22;10453;50.810;12.540;2023-04-03T00:33:13;2.40;99.90
20590;DHT22;10453;50.810;12.540;2023-04-03T00:37:30;2.30;99.90
20590;DHT22;10453;50.810;12.540;2023-04-03T00:41:48;2.30;99.90
20590;DHT22;10453;50.810;12.540;2023-04-03T00:46:05;2.30;99.90
20590;DHT22;10453;50.810;12.540;2023-04-03T00:50:23;2.10;99.90
20590;DHT22;10453;50.810;12.540;2023-04-03T00:54:41;2.20;99.90
20590;DHT22;10453;50.810;12.540;2023-04-03T00:59:02;2.10;99.90
20590;DHT22;10453;50.810;12.540;2023-04-03T01:03:20;2.10;99.90
20590;DHT22;10453;50.810;12.540;2023-04-03T01:07:38;2.00;99.90
20590;DHT22;10453;50.810;12.540;2023-04-03T01:12:21;2.10;99.90
20590;DHT22;10453;50.810;12.540;2023-04-03T01:16:38;2.00;99.90
20590;DHT22;10453;50.810;12.540;2023-04-03T01:21:23;1.90;99.90
20590;DHT22;10453;50.810;12.540;2023-04-03T01:25:49;1.90;99.90
20590;DHT22;10453;50.810;12.540;2023-04-03T01:30:07;1.90;99.90
20590;DHT22;10453;50.810;12.540;2023-04-03T01:34:26;1.90;99.90
20590;DHT22;10453;50.810;12.540;2023-04-03T01:38:43;1.90;99.90
20590;DHT22;10453;50.810;12.540;2023-04-03T01:43:00;1.80;99.90
20590;DHT22;10453;50.810;12.540;2023-04-03T01:47:17;1.80;99.90
20590;DHT22;10453;50.810;12.540;2023-04-03T01:51:35;1.80;99.90
20590;DHT22;10453;50.810;12.540;2023-04-03T01:55:53;1.80;99.90
20590;DHT22;10453;50.810;12.540;2023-04-03T02:00:10;1.70;99.90
20590;DHT22;10453;50.810;12.540;2023-04-03T02:04:28;1.70;99.90
20590;DHT22;10453;50.810;12.540;2023-04-03T02:08:45;1.60;99.90
20590;DHT22;10453;50.810;12.540;2023-04-03T02:13:03;1.60;99.90
20590;DHT22;10453;50.810;12.540;2023-04-03T02:17:20;1.60;99.90
20590;DHT22;10453;50.810;12.540;2023-04-03T02:21:39;1.50;99.90
20590;DHT22;10453;50.810;12.540;2023-04-03T02:26:12;1.50;99.90
20590;DHT22;10453;50.810;12.540;2023-04-03T02:30:29;1.40;99.90
20590;DHT22;10453;50.810;12.540;2023-04-03T02:34:46;1.40;99.90
20590;DHT22;10453;50.810;12.540;2023-04-03T02:39:04;1.30;99.90
20590;DHT22;10453;50.810;12.540;2023-04-03T02:43:21;1.20;99.90
20590;DHT22;10453;50.810;12.540;2023-04-03T02:47:39;1.10;99.90
20590;DHT22;10453;50.810;12.540;2023-04-03T02:51:56;1.00;99.90
20590;DHT22;10453;50.810;12.540;2023-04-03T02:56:14;0.90;99.90
20590;DHT22;10453;50.810;12.540;2023-04-03T03:00:31;1.00;99.90
20590;DHT22;10453;50.810;12.540;2023-04-03T03:04:50;0.90;99.90
20590;DHT22;10453;50.810;12.540;2023-04-03T03:09:08;0.90;99.90
20590;DHT22;10453;50.810;12.540;2023-04-03T03:13:25;0.90;99.90
20590;DHT22;10453;50.810;12.540;2023-04-03T03:17:43;0.90;99.90
20590;DHT22;10453;50.810;12.540;2023-04-03T03:22:00;0.90;99.90
20590;DHT22;10453;50.810;12.540;2023-04-03T03:26:17;0.90;99.90
20590;DHT22;10453;50.810;12.540;2023-04-03T03:30:35;0.80;99.90
20590;DHT22;10453;50.810;12.540;2023-04-03T03:34:52;0.90;99.90
20590;DHT22;10453;50.810;12.540;2023-04-03T03:39:10;0.80;99.90
20590;DHT22;10453;50.810;12.540;2023-04-03T03:43:27;0.80;99.90
20590;DHT22;10453;50.810;12.540;2023-04-03T03:47:44;0.60;99.90
20590;DHT22;10453;50.810;12.540;2023-04-03T03:52:02;0.60;99.90
20590;DHT22;10453;50.810;12.540;2023-04-03T03:56:20;0.70;99.90
20590;DHT22;10453;50.810;12.540;2023-04-03T04:00:37;0.70;99.90
20590;DHT22;10453;50.810;12.540;2023-04-03T04:04:55;0.50;99.90
20590;DHT22;10453;50.810;12.540;2023-04-03T04:09:12;0.50;99.90
20590;DHT22;10453;50.810;12.540;2023-04-03T04:13:30;0.40;99.90
20590;DHT22;10453;50.810;12.540;2023-04-03T04:17:48;0.20;99.90
20590;DHT22;10453;50.810;12.540;2023-04-03T04:22:06;0.20;99.90
20590;DHT22;10453;50.810;12.540;2023-04-03T04:26:23;0.20;99.90
20590;DHT22;10453;50.810;12.540;2023-04-03T04:30:41;0.10;99.90
20590;DHT22;10453;50.810;12.540;2023-04-03T04:34:59;0.00;99.90
20590;DHT22;10453;50.810;12.540;2023-04-03T04:39:17;-0.10;99.90
20590;DHT22;10453;50.810;12.540;2023-04-03T04:43:34;-0.10;99.90
20590;DHT22;10453;50.810;12.540;2023-04-03T04:47:54;-0.20;99.90
20590;DHT22;10453;50.810;12.540;2023-04-03T04:52:11;-0.30;99.90
20590;DHT22;10453;50.810;12.540;2023-04-03T04:56:28;-0.30;99.90
20590;DHT22;10453;50.810;12.540;2023-04-03T05:00:46;-0.30;99.90
20590;DHT22;10453;50.810;12.540;2023-04-03T05:05:03;-0.40;99.90
20590;DHT22;10453;50.810;12.540;2023-04-03T05:09:21;-0.40;99.90
20590;DHT22;10453;50.810;12.540;2023-04-03T05:13:39;-0.50;99.90
20590;DHT22;10453;50.810;12.540;2023-04-03T05:17:56;-0.50;99.90
20590;DHT22;10453;50.810;12.540;2023-04-03T05:22:14;-0.50;99.90
20590;DHT22;10453;50.810;12.540;2023-04-03T05:26:32;-0.50;99.90
20590;DHT22;10453;50.810;12.540;2023-04-03T05:30:55;-0.50;99.90
20590;DHT22;10453;50.810;12.540;2023-04-03T05:35:13;-0.50;99.90
20590;DHT22;10453;50.810;12.540;2023-04-03T05:39:30;-0.50;99.90
20590;DHT22;10453;50.810;12.540;2023-04-03T05:43:48;-0.50;99.90
20590;DHT22;10453;50.810;12.540;2023-04-03T05:48:06;-0.50;99.90
20590;DHT22;10453;50.810;12.540;2023-04-03T05:52:27;-0.40;99.90
20590;DHT22;10453;50.810;12.540;2023-04-03T05:56:45;-0.30;99.90
20590;DHT22;10453;50.810;12.540;2023-04-03T06:01:02;-0.30;99.90
20590;DHT22;10453;50.810;12.540;2023-04-03T06:05:19;-0.30;99.90
20590;DHT22;10453;50.810;12.540;2023-04-03T06:09:37;-0.20;99.90
20590;DHT22;10453;50.810;12.540;2023-04-03T06:13:54;-0.20;99.90
20590;DHT22;10453;50.810;12.540;2023-04-03T06:18:12;-0.10;99.90
20590;DHT22;10453;50.810;12.540;2023-04-03T06:22:30;0.20;99.90
20590;DHT22;10453;50.810;12.540;2023-04-03T06:26:47;0.50;99.90
20590;DHT22;10453;50.810;12.540;2023-04-03T06:31:05;0.60;99.90
20590;DHT22;10453;50.810;12.540;2023-04-03T06:35:23;0.80;99.90
20590;DHT22;10453;50.810;12.540;2023-04-03T06:39:40;0.70;99.90
20590;DHT22;10453;50.810;12.540;2023-04-03T06:43:58;0.80;99.90
20590;DHT22;10453;50.810;12.540;2023-04-03T06:48:16;0.80;99.90
20590;DHT22;10453;50.810;12.540;2023-04-03T06:52:33;0.60;99.90
20590;DHT22;10453;50.810;12.540;2023-04-03T06:56:50;0.70;99.90
20590;DHT22;10453;50.810;12.540;2023-04-03T07:01:09;0.80;99.90
20590;DHT22;10453;50.810;12.540;2023-04-03T07:05:26;1.00;99.90
20590;DHT22;10453;50.810;12.540;2023-04-03T07:09:44;1.20;99.90
20590;DHT22;10453;50.810;12.540;2023-04-03T07:14:03;1.30;99.90
20590;DHT22;10453;50.810;12.540;2023-04-03T07:18:21;1.20;99.90
20590;DHT22;10453;50.810;12.540;2023-04-03T07:22:39;1.40;99.90
20590;DHT22;10453;50.810;12.540;2023-04-03T07:26:56;1.40;99.90
20590;DHT22;10453;50.810;12.540;2023-04-03T07:31:15;1.60;99.90
20590;DHT22;10453;50.810;12.540;2023-04-03T07:35:34;1.70;99.90
20590;DHT22;10453;50.810;12.540;2023-04-03T07:39:52;1.60;99.90
20590;DHT22;10453;50.810;12.540;2023-04-03T07:44:09;1.80;99.90
20590;DHT22;10453;50.810;12.540;2023-04-03T07:48:27;1.70;99.90
20590;DHT22;10453;50.810;12.540;2023-04-03T07:52:45;1.80;99.90
20590;DHT22;10453;50.810;12.540;2023-04-03T07:57:02;2.10;99.90
20590;DHT22;10453;50.810;12.540;2023-04-03T08:01:20;2.00;99.90
20590;DHT22;10453;50.810;12.540;2023-04-03T08:05:39;2.00;99.90
20590;DHT22;10453;50.810;12.540;2023-04-03T08:09:56;2.30;99.90
20590;DHT22;10453;50.810;12.540;2023-04-03T08:14:14;2.40;99.90
20590;DHT22;10453;50.810;12.540;2023-04-03T08:18:34;1.80;99.90
20590;DHT22;10453;50.810;12.540;2023-04-03T08:22:51;2.30;99.90
20590;DHT22;10453;50.810;12.540;2023-04-03T08:27:08;2.40;99.90
20590;DHT22;10453;50.810;12.540;2023-04-03T08:31:26;2.60;99.90
20590;DHT22;10453;50.810;12.540;2023-04-03T08:35:43;3.10;99.90
20590;DHT22;10453;50.810;12.540;2023-04-03T08:40:01;3.20;99.90
20590;DHT22;10453;50.810;12.540;2023-04-03T08:44:38;2.90;99.90
20590;DHT22;10453;50.810;12.540;2023-04-03T08:48:59;2.80;99.90
20590;DHT22;10453;50.810;12.540;2023-04-03T08:53:29;2.50;99.90
20590;DHT22;10453;50.810;12.540;2023-04-03T08:57:53;2.10;99.90
20590;DHT22;10453;50.810;12.540;2023-04-03T09:02:35;2.10;99.90
20590;DHT22;10453;50.810;12.540;2023-04-03T09:07:03;1.90;99.90
20590;DHT22;10453;50.810;12.540;2023-04-03T09:15:53;2.40;99.90
20590;DHT22;10453;50.810;12.540;2023-04-03T09:25:18;3.00;99.90
20590;DHT22;10453;50.810;12.540;2023-04-03T09:29:41;3.10;99.90
20590;DHT22;10453;50.810;12.540;2023-04-03T09:34:07;3.40;99.90
20590;DHT22;10453;50.810;12.540;2023-04-03T09:38:26;3.70;99.90
20590;DHT22;10453;50.810;12.540;2023-04-03T09:42:44;3.70;99.90
20590;DHT22;10453;50.810;12.540;2023-04-03T09:47:32;3.20;99.90
20590;DHT22;10453;50.810;12.540;2023-04-03T09:51:51;3.30;99.90
20590;DHT22;10453;50.810;12.540;2023-04-03T10:00:37;5.50;99.90
20590;DHT22;10453;50.810;12.540;2023-04-03T10:04:55;6.70;99.90
20590;DHT22;10453;50.810;12.540;2023-04-03T10:09:31;6.50;94.10
20590;DHT22;10453;50.810;12.540;2023-04-03T10:13:51;6.30;93.20
20590;DHT22;10453;50.810;12.540;2023-04-03T10:22:52;6.50;90.70
20590;DHT22;10453;50.810;12.540;2023-04-03T10:36:46;4.20;99.60
20590;DHT22;10453;50.810;12.540;2023-04-03T10:41:17;4.40;99.90
20590;DHT22;10453;50.810;12.540;2023-04-03T10:59:46;5.40;97.80
20590;DHT22;10453;50.810;12.540;2023-04-03T11:04:06;5.60;94.70
20590;DHT22;10453;50.810;12.540;2023-04-03T11:13:33;6.90;91.30
20590;DHT22;10453;50.810;12.540;2023-04-03T11:17:57;6.30;86.70
20590;DHT22;10453;50.810;12.540;2023-04-03T11:22:27;6.20;89.90
20590;DHT22;10453;50.810;12.540;2023-04-03T11:26:45;7.80;82.40
20590;DHT22;10453;50.810;12.540;2023-04-03T11:35:26;7.40;77.90
20590;DHT22;10453;50.810;12.540;2023-04-03T11:39:56;6.10;80.80
20590;DHT22;10453;50.810;12.540;2023-04-03T11:48:50;8.20;70.30
20590;DHT22;10453;50.810;12.540;2023-04-03T11:57:46;7.70;67.60
20590;DHT22;10453;50.810;12.540;2023-04-03T12:02:37;6.20;66.80
20590;DHT22;10453;50.810;12.540;2023-04-03T12:07:18;5.60;69.90
20590;DHT22;10453;50.810;12.540;2023-04-03T12:11:36;5.20;67.50
20590;DHT22;10453;50.810;12.540;2023-04-03T12:15:53;5.30;69.10
20590;DHT22;10453;50.810;12.540;2023-04-03T12:30:29;6.10;67.40
20590;DHT22;10453;50.810;12.540;2023-04-03T12:39:48;6.80;67.70
20590;DHT22;10453;50.810;12.540;2023-04-03T12:44:33;7.90;66.20
20590;DHT22;10453;50.810;12.540;2023-04-03T12:48:59;6.80;65.70
20590;DHT22;10453;50.810;12.540;2023-04-03T12:53:26;6.80;61.00
20590;DHT22;10453;50.810;12.540;2023-04-03T12:57:44;8.30;64.20
20590;DHT22;10453;50.810;12.540;2023-04-03T13:02:02;7.40;66.80
20590;DHT22;10453;50.810;12.540;2023-04-03T13:06:27;6.80;66.30
20590;DHT22;10453;50.810;12.540;2023-04-03T13:10:56;7.20;71.30
20590;DHT22;10453;50.810;12.540;2023-04-03T13:19:40;6.80;65.40
20590;DHT22;10453;50.810;12.540;2023-04-03T13:24:00;8.50;62.50
20590;DHT22;10453;50.810;12.540;2023-04-03T13:28:31;7.60;60.30
20590;DHT22;10453;50.810;12.540;2023-04-03T13:32:50;7.10;64.00
20590;DHT22;10453;50.810;12.540;2023-04-03T13:37:29;6.80;64.10
20590;DHT22;10453;50.810;12.540;2023-04-03T13:41:49;6.10;69.20
20590;DHT22;10453;50.810;12.540;2023-04-03T13:50:27;5.70;67.50
20590;DHT22;10453;50.810;12.540;2023-04-03T13:54:46;5.90;65.30
20590;DHT22;10453;50.810;12.540;2023-04-03T13:59:32;7.90;63.90
20590;DHT22;10453;50.810;12.540;2023-04-03T14:03:54;6.80;62.80
20590;DHT22;10453;50.810;12.540;2023-04-03T14:08:12;6.30;67.30
20590;DHT22;10453;50.810;12.540;2023-04-03T14:12:35;6.40;69.60
20590;DHT22;10453;50.810;12.540;2023-04-03T14:16:56;6.90;69.80
20590;DHT22;10453;50.810;12.540;2023-04-03T14:21:17;6.20;70.20
20590;DHT22;10453;50.810;12.540;2023-04-03T14:25:35;6.80;67.90
20590;DHT22;10453;50.810;12.540;2023-04-03T14:29:54;6.70;64.10
20590;DHT22;10453;50.810;12.540;2023-04-03T14:34:14;6.20;66.70
20590;DHT22;10453;50.810;12.540;2023-04-03T14:38:31;6.70;67.00
20590;DHT22;10453;50.810;12.540;2023-04-03T14:42:49;7.90;65.10
20590;DHT22;10453;50.810;12.540;2023-04-03T14:47:12;7.50;65.60
20590;DHT22;10453;50.810;12.540;2023-04-03T14:51:47;6.80;64.10
20590;DHT22;10453;50.810;12.540;2023-04-03T14:56:14;6.20;69.10
20590;DHT22;10453;50.810;12.540;2023-04-03T15:00:32;6.00;68.40
20590;DHT22;10453;50.810;12.540;2023-04-03T15:04:49;6.00;70.80
20590;DHT22;10453;50.810;12.540;2023-04-03T15:09:34;6.10;73.90
20590;DHT22;10453;50.810;12.540;2023-04-03T15:13:51;6.10;71.90
20590;DHT22;10453;50.810;12.540;2023-04-03T15:18:19;6.20;69.20
20590;DHT22;10453;50.810;12.540;2023-04-03T15:22:37;6.10;68.00
20590;DHT22;10453;50.810;12.540;2023-04-03T15:26:54;5.90;68.10
20590;DHT22;10453;50.810;12.540;2023-04-03T15:31:12;5.40;70.30
20590;DHT22;10453;50.810;12.540;2023-04-03T15:35:30;5.30;70.80
20590;DHT22;10453;50.810;12.540;2023-04-03T15:39:47;5.30;70.90
20590;DHT22;10453;50.810;12.540;2023-04-03T15:44:06;5.00;70.80
20590;DHT22;10453;50.810;12.540;2023-04-03T15:48:23;4.90;71.30
20590;DHT22;10453;50.810;12.540;2023-04-03T15:52:41;4.80;69.30
20590;DHT22;10453;50.810;12.540;2023-04-03T15:56:58;4.90;71.00
20590;DHT22;10453;50.810;12.540;2023-04-03T16:01:16;4.70;71.90
20590;DHT22;10453;50.810;12.540;2023-04-03T16:05:35;4.50;73.90
20590;DHT22;10453;50.810;12.540;2023-04-03T16:09:53;4.50;75.70
20590;DHT22;10453;50.810;12.540;2023-04-03T16:14:10;4.70;75.90
20590;DHT22;10453;50.810;12.540;2023-04-03T16:18:29;4.60;72.60
20590;DHT22;10453;50.810;12.540;2023-04-03T16:22:47;4.70;73.40
20590;DHT22;10453;50.810;12.540;2023-04-03T16:27:05;4.50;73.30
20590;DHT22;10453;50.810;12.540;2023-04-03T16:31:24;4.30;77.70
20590;DHT22;10453;50.810;12.540;2023-04-03T16:35:42;4.30;76.50
20590;DHT22;10453;50.810;12.540;2023-04-03T16:40:00;4.00;75.30
20590;DHT22;10453;50.810;12.540;2023-04-03T16:44:17;4.20;74.10
20590;DHT22;10453;50.810;12.540;2023-04-03T16:48:35;3.80;74.80
20590;DHT22;10453;50.810;12.540;2023-04-03T16:52:54;3.90;74.70
20590;DHT22;10453;50.810;12.540;2023-04-03T16:57:11;3.90;76.10
20590;DHT22;10453;50.810;12.540;2023-04-03T17:01:29;3.70;74.50
20590;DHT22;10453;50.810;12.540;2023-04-03T17:05:47;3.70;75.10
20590;DHT22;10453;50.810;12.540;2023-04-03T17:10:05;3.70;75.50
20590;DHT22;10453;50.810;12.540;2023-04-03T17:14:23;3.70;76.70
20590;DHT22;10453;50.810;12.540;2023-04-03T17:18:41;3.60;76.40
20590;DHT22;10453;50.810;12.540;2023-04-03T17:22:59;3.40;78.00
20590;DHT22;10453;50.810;12.540;2023-04-03T17:27:18;3.30;82.00
20590;DHT22;10453;50.810;12.540;2023-04-03T17:31:36;3.40;80.40
20590;DHT22;10453;50.810;12.540;2023-04-03T17:35:57;3.40;81.40
20590;DHT22;10453;50.810;12.540;2023-04-03T17:40:14;3.40;79.30
20590;DHT22;10453;50.810;12.540;2023-04-03T17:44:33;3.30;80.00
20590;DHT22;10453;50.810;12.540;2023-04-03T17:48:51;3.20;80.00
20590;DHT22;10453;50.810;12.540;2023-04-03T17:53:09;3.20;81.90
20590;DHT22;10453;50.810;12.540;2023-04-03T17:57:28;3.10;80.30
20590;DHT22;10453;50.810;12.540;2023-04-03T18:01:47;3.10;79.80
20590;DHT22;10453;50.810;12.540;2023-04-03T18:06:08;3.20;78.70
20590;DHT22;10453;50.810;12.540;2023-04-03T18:10:27;3.10;81.20
20590;DHT22;10453;50.810;12.540;2023-04-03T18:14:45;3.10;83.00
20590;DHT22;10453;50.810;12.540;2023-04-03T18:19:02;3.20;86.50
20590;DHT22;10453;50.810;12.540;2023-04-03T18:23:40;3.20;82.90
20590;DHT22;10453;50.810;12.540;2023-04-03T18:28:00;3.10;82.70
20590;DHT22;10453;50.810;12.540;2023-04-03T18:32:22;3.00;81.80
20590;DHT22;10453;50.810;12.540;2023-04-03T18:36:40;3.10;81.50
20590;DHT22;10453;50.810;12.540;2023-04-03T18:40:59;2.90;79.80
20590;DHT22;10453;50.810;12.540;2023-04-03T18:45:21;2.90;82.00
20590;DHT22;10453;50.810;12.540;2023-04-03T18:49:40;2.90;80.20
20590;DHT22;10453;50.810;12.540;2023-04-03T18:53:58;2.80;79.40
20590;DHT22;10453;50.810;12.540;2023-04-03T18:58:16;2.80;80.30
20590;DHT22;10453;50.810;12.540;2023-04-03T19:02:33;2.80;82.50
20590;DHT22;10453;50.810;12.540;2023-04-03T19:06:53;2.80;79.50
20590;DHT22;10453;50.810;12.540;2023-04-03T19:11:10;2.80;82.00
20590;DHT22;10453;50.810;12.540;2023-04-03T19:15:28;2.70;86.40
20590;DHT22;10453;50.810;12.540;2023-04-03T19:19:45;2.70;83.80
20590;DHT22;10453;50.810;12.540;2023-04-03T19:24:03;2.70;83.00
20590;DHT22;10453;50.810;12.540;2023-04-03T19:28:20;2.70;83.90
20590;DHT22;10453;50.810;12.540;2023-04-03T19:32:37;2.60;82.40
20590;DHT22;10453;50.810;12.540;2023-04-03T19:36:55;2.60;84.90
20590;DHT22;10453;50.810;12.540;2023-04-03T19:41:15;2.70;83.40
20590;DHT22;10453;50.810;12.540;2023-04-03T19:45:33;2.50;86.90
20590;DHT22;10453;50.810;12.540;2023-04-03T19:49:51;2.50;91.30
20590;DHT22;10453;50.810;12.540;2023-04-03T19:54:08;2.60;85.70
20590;DHT22;10453;50.810;12.540;2023-04-03T19:58:25;2.60;84.70
20590;DHT22;10453;50.810;12.540;2023-04-03T20:02:46;2.60;86.70
20590;DHT22;10453;50.810;12.540;2023-04-03T20:07:03;2.50;91.30
20590;DHT22;10453;50.810;12.540;2023-04-03T20:11:21;2.30;90.60
20590;DHT22;10453;50.810;12.540;2023-04-03T20:15:40;2.30;89.70
20590;DHT22;10453;50.810;12.540;2023-04-03T20:19:58;2.30;93.20
20590;DHT22;10453;50.810;12.540;2023-04-03T20:24:17;2.30;95.70
20590;DHT22;10453;50.810;12.540;2023-04-03T20:28:35;2.40;93.60
20590;DHT22;10453;50.810;12.540;2023-04-03T20:32:54;2.40;92.80
20590;DHT22;10453;50.810;12.540;2023-04-03T20:37:12;2.50;93.50
20590;DHT22;10453;50.810;12.540;2023-04-03T20:41:30;2.50;96.10
20590;DHT22;10453;50.810;12.540;2023-04-03T20:45:51;2.40;94.80
20590;DHT22;10453;50.810;12.540;2023-04-03T20:50:09;2.30;95.90
20590;DHT22;10453;50.810;12.540;2023-04-03T20:54:26;2.20;97.00
20590;DHT22;10453;50.810;12.540;2023-04-03T20:58:44;2.20;99.90
20590;DHT22;10453;50.810;12.540;2023-04-03T21:03:02;2.20;99.90
20590;DHT22;10453;50.810;12.540;2023-04-03T21:21:30;2.00;99.90
20590;DHT22;10453;50.810;12.540;2023-04-03T21:25:53;1.90;99.90
20590;DHT22;10453;50.810;12.540;2023-04-03T21:30:11;1.80;99.90
20590;DHT22;10453;50.810;12.540;2023-04-03T21:34:29;1.80;99.90
20590;DHT22;10453;50.810;12.540;2023-04-03T21:38:47;1.80;99.90
20590;DHT22;10453;50.810;12.540;2023-04-03T21:43:04;1.90;99.90
20590;DHT22;10453;50.810;12.540;2023-04-03T21:47:21;2.00;99.90
20590;DHT22;10453;50.810;12.540;2023-04-03T21:51:39;1.80;99.90
20590;DHT22;10453;50.810;12.540;2023-04-03T21:55:57;1.70;99.90
20590;DHT22;10453;50.810;12.540;2023-04-03T22:00:16;1.60;99.90
20590;DHT22;10453;50.810;12.540;2023-04-03T22:04:35;1.70;99.90
20590;DHT22;10453;50.810;12.540;2023-04-03T22:08:52;1.70;99.90
20590;DHT22;10453;50.810;12.540;2023-04-03T22:13:09;1.90;99.90
20590;DHT22;10453;50.810;12.540;2023-04-03T22:17:29;2.10;99.90
20590;DHT22;10453;50.810;12.540;2023-04-03T22:21:47;2.00;99.90
20590;DHT22;10453;50.810;12.540;2023-04-03T22:26:06;1.80;99.90
20590;DHT22;10453;50.810;12.540;2023-04-03T22:30:24;1.80;99.90
20590;DHT22;10453;50.810;12.540;2023-04-03T22:34:41;1.80;99.90
20590;DHT22;10453;50.810;12.540;2023-04-03T22:38:59;1.70;99.90
20590;DHT22;10453;50.810;12.540;2023-04-03T22:43:16;1.80;99.90
20590;DHT22;10453;50.810;12.540;2023-04-03T22:47:33;1.70;99.90
20590;DHT22;10453;50.810;12.540;2023-04-03T22:51:50;1.80;99.90
20590;DHT22;10453;50.810;12.540;2023-04-03T22:56:08;1.70;99.90
20590;DHT22;10453;50.810;12.540;2023-04-03T23:00:27;1.80;99.90
20590;DHT22;10453;50.810;12.540;2023-04-03T23:04:44;1.90;99.90
20590;DHT22;10453;50.810;12.540;2023-04-03T23:09:02;1.90;99.90
20590;DHT22;10453;50.810;12.540;2023-04-03T23:13:19;1.80;99.90
20590;DHT22;10453;50.810;12.540;2023-04-03T23:17:37;1.80;99.90
20590;DHT22;10453;50.810;12.540;2023-04-03T23:21:54;1.80;99.90
20590;DHT22;10453;50.810;12.540;2023-04-03T23:26:12;1.90;99.90
20590;DHT22;10453;50.810;12.540;2023-04-03T23:30:29;1.80;99.90
20590;DHT22;10453;50.810;12.540;2023-04-03T23:34:46;1.70;99.90
20590;DHT22;10453;50.810;12.540;2023-04-03T23:39:03;1.70;99.90
20590;DHT22;10453;50.810;12.540;2023-04-03T23:43:21;1.80;99.90
20590;DHT22;10453;50.810;12.540;2023-04-03T23:47:38;1.70;99.90
20590;DHT22;10453;50.810;12.540;2023-04-03T23:51:55;1.80;99.90
20590;DHT22;10453;50.810;12.540;2023-04-03T23:56:13;1.90;99.90
